Terminal Aerodrome Forecast
Issued by NWS Louisville, KY

Home | Current Version | Previous Version | Text Only | Print | Product List | Glossary On
Versions: 1 2 3 4 5 6 7 8 9 10 11 12
237
FTUS43 KLMK 291126
TAFBWG
TAF
KBWG 291126Z 2912/3012 20012G19KT P6SM SCT060 BKN250
     FM291800 20011G19KT P6SM VCTS SCT045CB
     FM300100 17007KT P6SM SCT200
     FM300900 18006KT P6SM BKN015=

USA.gov is the U.S. government's official web portal to all federal, state and local government web resources and services.